sensor_id;sensor_type;location;lat;lon;timestamp;pressure;altitude;pressure_sealevel;temperature;humidity
65157;BME280;52745;49.794;18.258;2023-02-10T00:01:34;-15867.16;;;-2.62;68.09
65157;BME280;52745;49.794;18.258;2023-02-10T00:04:01;-15866.47;;;-2.65;68.33
65157;BME280;52745;49.794;18.258;2023-02-10T00:06:28;-15864.69;;;-2.72;68.53
65157;BME280;52745;49.794;18.258;2023-02-10T00:08:58;-15866.06;;;-2.66;67.85
65157;BME280;52745;49.794;18.258;2023-02-10T00:11:26;-15865.53;;;-2.68;68.22
65157;BME280;52745;49.794;18.258;2023-02-10T00:14:14;-15865.78;;;-2.67;68.49
65157;BME280;52745;49.794;18.258;2023-02-10T00:16:41;-15864.16;;;-2.74;68.35
65157;BME280;52745;49.794;18.258;2023-02-10T00:19:08;-15863.31;;;-2.77;68.26
65157;BME280;52745;49.794;18.258;2023-02-10T00:21:35;-15863.47;;;-2.76;68.26
65157;BME280;52745;49.794;18.258;2023-02-10T00:24:03;-15864.16;;;-2.74;68.41
65157;BME280;52745;49.794;18.258;2023-02-10T00:26:29;-15862.50;;;-2.80;68.28
65157;BME280;52745;49.794;18.258;2023-02-10T00:28:56;-15861.53;;;-2.83;68.66
65157;BME280;52745;49.794;18.258;2023-02-10T00:31:23;-15861.41;;;-2.84;68.57
65157;BME280;52745;49.794;18.258;2023-02-10T00:33:50;-15861.69;;;-2.83;68.66
65157;BME280;52745;49.794;18.258;2023-02-10T00:36:17;-15860.59;;;-2.87;68.82
65157;BME280;52745;49.794;18.258;2023-02-10T00:38:44;-15860.31;;;-2.88;68.83
65157;BME280;52745;49.794;18.258;2023-02-10T00:41:13;-15859.63;;;-2.91;69.41
65157;BME280;52745;49.794;18.258;2023-02-10T00:43:41;-15858.94;;;-2.93;69.42
65157;BME280;52745;49.794;18.258;2023-02-10T00:46:12;-15857.84;;;-2.97;69.55
65157;BME280;52745;49.794;18.258;2023-02-10T00:48:39;-15856.31;;;-3.03;69.21
65157;BME280;52745;49.794;18.258;2023-02-10T00:51:08;-15857.28;;;-2.99;69.78
65157;BME280;52745;49.794;18.258;2023-02-10T00:53:35;-15855.09;;;-3.07;70.01
65157;BME280;52745;49.794;18.258;2023-02-10T00:56:03;-15854.53;;;-3.09;70.03
65157;BME280;52745;49.794;18.258;2023-02-10T00:58:30;-15855.09;;;-3.07;69.95
65157;BME280;52745;49.794;18.258;2023-02-10T01:00:57;-15855.22;;;-3.07;70.09
65157;BME280;52745;49.794;18.258;2023-02-10T01:03:24;-15856.75;;;-3.01;70.01
65157;BME280;52745;49.794;18.258;2023-02-10T01:05:51;-15855.09;;;-3.07;70.10
65157;BME280;52745;49.794;18.258;2023-02-10T01:08:18;-15856.06;;;-3.04;69.77
65157;BME280;52745;49.794;18.258;2023-02-10T01:10:46;-15854.00;;;-3.12;70.12
65157;BME280;52745;49.794;18.258;2023-02-10T01:13:14;-15855.09;;;-3.07;70.22
65157;BME280;52745;49.794;18.258;2023-02-10T01:15:42;-15856.19;;;-3.03;69.87
65157;BME280;52745;49.794;18.258;2023-02-10T01:18:10;-15855.38;;;-3.06;69.66
65157;BME280;52745;49.794;18.258;2023-02-10T01:20:38;-15856.75;;;-3.01;69.46
65157;BME280;52745;49.794;18.258;2023-02-10T01:23:06;-15855.66;;;-3.05;69.71
65157;BME280;52745;49.794;18.258;2023-02-10T01:25:34;-15857.00;;;-3.00;69.69
65157;BME280;52745;49.794;18.258;2023-02-10T01:28:02;-15856.06;;;-3.04;69.60
65157;BME280;52745;49.794;18.258;2023-02-10T01:30:29;-15854.28;;;-3.10;70.15
65157;BME280;52745;49.794;18.258;2023-02-10T01:32:56;-15852.75;;;-3.16;70.23
65157;BME280;52745;49.794;18.258;2023-02-10T01:35:23;-15853.16;;;-3.15;70.21
65157;BME280;52745;49.794;18.258;2023-02-10T01:37:50;-15855.38;;;-3.06;70.29
65157;BME280;52745;49.794;18.258;2023-02-10T01:40:17;-15855.38;;;-3.06;70.40
65157;BME280;52745;49.794;18.258;2023-02-10T01:42:44;-15856.47;;;-3.02;70.01
65157;BME280;52745;49.794;18.258;2023-02-10T01:45:31;-15855.50;;;-3.06;70.09
65157;BME280;52745;49.794;18.258;2023-02-10T01:47:59;-15857.00;;;-3.00;69.54
65157;BME280;52745;49.794;18.258;2023-02-10T01:50:31;-15857.84;;;-2.97;69.56
65157;BME280;52745;49.794;18.258;2023-02-10T01:52:59;-15856.88;;;-3.01;69.87
65157;BME280;52745;49.794;18.258;2023-02-10T01:55:28;-15856.88;;;-3.01;69.58
65157;BME280;52745;49.794;18.258;2023-02-10T01:58:03;-15855.38;;;-3.06;70.30
65157;BME280;52745;49.794;18.258;2023-02-10T02:00:31;-15855.91;;;-3.04;70.00
65157;BME280;52745;49.794;18.258;2023-02-10T02:02:59;-15858.38;;;-2.95;69.77
65157;BME280;52745;49.794;18.258;2023-02-10T02:05:36;-15861.25;;;-2.84;69.26
65157;BME280;52745;49.794;18.258;2023-02-10T02:08:25;-15858.53;;;-2.95;69.85
65157;BME280;52745;49.794;18.258;2023-02-10T02:11:18;-15859.75;;;-2.90;69.38
65157;BME280;52745;49.794;18.258;2023-02-10T02:25:02;-15854.53;;;-3.09;70.41
65157;BME280;52745;49.794;18.258;2023-02-10T02:33:32;-15853.44;;;-3.14;71.03
65157;BME280;52745;49.794;18.258;2023-02-10T02:36:08;-15854.94;;;-3.08;70.64
65157;BME280;52745;49.794;18.258;2023-02-10T02:38:41;-15855.78;;;-3.05;70.55
65157;BME280;52745;49.794;18.258;2023-02-10T02:41:10;-15856.88;;;-3.01;70.46
65157;BME280;52745;49.794;18.258;2023-02-10T02:43:38;-15854.28;;;-3.10;70.83
65157;BME280;52745;49.794;18.258;2023-02-10T02:46:22;-15851.38;;;-3.21;70.93
65157;BME280;52745;49.794;18.258;2023-02-10T02:48:56;-15852.91;;;-3.16;70.38
65157;BME280;52745;49.794;18.258;2023-02-10T02:51:28;-15851.13;;;-3.22;70.57
65157;BME280;52745;49.794;18.258;2023-02-10T02:54:11;-15850.56;;;-3.24;70.17
65157;BME280;52745;49.794;18.258;2023-02-10T02:56:46;-15853.03;;;-3.15;70.11
65157;BME280;52745;49.794;18.258;2023-02-10T02:59:34;-15849.47;;;-3.28;70.11
65157;BME280;52745;49.794;18.258;2023-02-10T03:02:06;-15850.16;;;-3.26;70.09
65157;BME280;52745;49.794;18.258;2023-02-10T03:04:34;-15851.94;;;-3.19;69.91
65157;BME280;52745;49.794;18.258;2023-02-10T03:07:01;-15851.38;;;-3.21;69.57
65157;BME280;52745;49.794;18.258;2023-02-10T03:09:29;-15852.06;;;-3.19;69.16
65157;BME280;52745;49.794;18.258;2023-02-10T03:11:56;-15853.44;;;-3.14;69.39
65157;BME280;52745;49.794;18.258;2023-02-10T03:14:23;-15854.81;;;-3.08;68.70
65157;BME280;52745;49.794;18.258;2023-02-10T03:16:50;-15855.09;;;-3.07;68.33
65157;BME280;52745;49.794;18.258;2023-02-10T03:19:16;-15853.31;;;-3.14;69.07
65157;BME280;52745;49.794;18.258;2023-02-10T03:21:43;-15855.66;;;-3.05;68.42
65157;BME280;52745;49.794;18.258;2023-02-10T03:24:10;-15855.22;;;-3.07;68.00
65157;BME280;52745;49.794;18.258;2023-02-10T03:26:37;-15856.19;;;-3.03;68.01
65157;BME280;52745;49.794;18.258;2023-02-10T03:29:05;-15856.31;;;-3.03;67.80
65157;BME280;52745;49.794;18.258;2023-02-10T03:31:32;-15857.00;;;-3.00;67.66
65157;BME280;52745;49.794;18.258;2023-02-10T03:33:59;-15854.69;;;-3.09;68.13
65157;BME280;52745;49.794;18.258;2023-02-10T03:36:26;-15854.13;;;-3.11;67.90
65157;BME280;52745;49.794;18.258;2023-02-10T03:38:52;-15853.31;;;-3.14;67.70
65157;BME280;52745;49.794;18.258;2023-02-10T03:41:20;-15854.81;;;-3.08;68.38
65157;BME280;52745;49.794;18.258;2023-02-10T03:43:46;-15852.91;;;-3.16;67.71
65157;BME280;52745;49.794;18.258;2023-02-10T03:46:13;-15852.91;;;-3.16;67.97
65157;BME280;52745;49.794;18.258;2023-02-10T03:48:40;-15854.81;;;-3.08;67.99
65157;BME280;52745;49.794;18.258;2023-02-10T03:51:07;-15854.13;;;-3.11;67.87
65157;BME280;52745;49.794;18.258;2023-02-10T03:53:34;-15855.66;;;-3.05;67.68
65157;BME280;52745;49.794;18.258;2023-02-10T03:56:02;-15855.09;;;-3.07;67.88
65157;BME280;52745;49.794;18.258;2023-02-10T03:58:29;-15854.00;;;-3.12;68.03
65157;BME280;52745;49.794;18.258;2023-02-10T04:00:56;-15853.72;;;-3.13;67.99
65157;BME280;52745;49.794;18.258;2023-02-10T04:03:22;-15853.84;;;-3.12;68.05
65157;BME280;52745;49.794;18.258;2023-02-10T04:05:49;-15852.63;;;-3.17;67.91
65157;BME280;52745;49.794;18.258;2023-02-10T04:08:16;-15853.16;;;-3.15;68.04
65157;BME280;52745;49.794;18.258;2023-02-10T04:10:43;-15853.31;;;-3.14;68.01
65157;BME280;52745;49.794;18.258;2023-02-10T04:13:09;-15852.22;;;-3.18;67.62
65157;BME280;52745;49.794;18.258;2023-02-10T04:15:36;-15851.66;;;-3.20;67.16
65157;BME280;52745;49.794;18.258;2023-02-10T04:18:03;-15853.84;;;-3.12;67.51
65157;BME280;52745;49.794;18.258;2023-02-10T04:20:30;-15853.72;;;-3.13;67.20
65157;BME280;52745;49.794;18.258;2023-02-10T04:22:57;-15855.38;;;-3.06;67.64
65157;BME280;52745;49.794;18.258;2023-02-10T04:25:25;-15855.66;;;-3.05;67.37
65157;BME280;52745;49.794;18.258;2023-02-10T04:27:51;-15856.59;;;-3.02;66.81
65157;BME280;52745;49.794;18.258;2023-02-10T04:30:18;-15857.44;;;-2.99;66.66
65157;BME280;52745;49.794;18.258;2023-02-10T04:32:45;-15854.53;;;-3.09;66.99
65157;BME280;52745;49.794;18.258;2023-02-10T04:35:12;-15855.09;;;-3.07;66.79
65157;BME280;52745;49.794;18.258;2023-02-10T04:37:39;-15853.59;;;-3.13;66.78
65157;BME280;52745;49.794;18.258;2023-02-10T04:40:06;-15855.09;;;-3.07;66.71
65157;BME280;52745;49.794;18.258;2023-02-10T04:42:32;-15855.38;;;-3.06;66.57
65157;BME280;52745;49.794;18.258;2023-02-10T04:44:59;-15853.84;;;-3.12;66.63
65157;BME280;52745;49.794;18.258;2023-02-10T04:47:27;-15854.69;;;-3.09;66.27
65157;BME280;52745;49.794;18.258;2023-02-10T04:49:54;-15854.13;;;-3.11;66.14
65157;BME280;52745;49.794;18.258;2023-02-10T04:52:21;-15854.69;;;-3.09;66.39
65157;BME280;52745;49.794;18.258;2023-02-10T04:54:48;-15854.69;;;-3.09;66.07
65157;BME280;52745;49.794;18.258;2023-02-10T04:57:15;-15856.75;;;-3.01;66.11
65157;BME280;52745;49.794;18.258;2023-02-10T04:59:42;-15854.41;;;-3.10;65.91
65157;BME280;52745;49.794;18.258;2023-02-10T05:02:08;-15854.81;;;-3.08;66.37
65157;BME280;52745;49.794;18.258;2023-02-10T05:04:35;-15854.28;;;-3.10;66.09
65157;BME280;52745;49.794;18.258;2023-02-10T05:07:02;-15852.75;;;-3.16;66.08
65157;BME280;52745;49.794;18.258;2023-02-10T05:09:29;-15850.69;;;-3.24;66.66
65157;BME280;52745;49.794;18.258;2023-02-10T05:11:56;-15854.00;;;-3.12;66.17
65157;BME280;52745;49.794;18.258;2023-02-10T05:14:22;-15853.72;;;-3.13;66.32
65157;BME280;52745;49.794;18.258;2023-02-10T05:16:49;-15852.47;;;-3.17;66.58
65157;BME280;52745;49.794;18.258;2023-02-10T05:19:16;-15852.06;;;-3.19;67.00
65157;BME280;52745;49.794;18.258;2023-02-10T05:21:43;-15854.94;;;-3.08;65.98
65157;BME280;52745;49.794;18.258;2023-02-10T05:24:10;-15853.84;;;-3.12;66.41
65157;BME280;52745;49.794;18.258;2023-02-10T05:26:37;-15853.44;;;-3.14;66.00
65157;BME280;52745;49.794;18.258;2023-02-10T05:29:03;-15852.34;;;-3.18;66.32
65157;BME280;52745;49.794;18.258;2023-02-10T05:31:30;-15852.63;;;-3.17;66.31
65157;BME280;52745;49.794;18.258;2023-02-10T05:33:57;-15849.59;;;-3.28;66.69
65157;BME280;52745;49.794;18.258;2023-02-10T05:36:24;-15848.78;;;-3.31;66.79
65157;BME280;52745;49.794;18.258;2023-02-10T05:38:51;-15851.94;;;-3.19;66.53
65157;BME280;52745;49.794;18.258;2023-02-10T05:41:36;-15850.69;;;-3.24;66.61
65157;BME280;52745;49.794;18.258;2023-02-10T05:44:03;-15851.53;;;-3.21;66.55
65157;BME280;52745;49.794;18.258;2023-02-10T05:46:30;-15849.59;;;-3.28;66.65
65157;BME280;52745;49.794;18.258;2023-02-10T05:48:56;-15849.88;;;-3.27;67.17
65157;BME280;52745;49.794;18.258;2023-02-10T05:51:23;-15853.16;;;-3.15;66.73
65157;BME280;52745;49.794;18.258;2023-02-10T05:53:50;-15849.88;;;-3.27;66.84
65157;BME280;52745;49.794;18.258;2023-02-10T05:56:17;-15850.84;;;-3.23;66.98
65157;BME280;52745;49.794;18.258;2023-02-10T05:58:44;-15850.97;;;-3.23;66.51
65157;BME280;52745;49.794;18.258;2023-02-10T06:01:11;-15850.56;;;-3.24;66.95
65157;BME280;52745;49.794;18.258;2023-02-10T06:03:38;-15850.28;;;-3.25;67.07
65157;BME280;52745;49.794;18.258;2023-02-10T06:06:05;-15850.16;;;-3.26;67.16
65157;BME280;52745;49.794;18.258;2023-02-10T06:08:32;-15848.50;;;-3.32;66.99
65157;BME280;52745;49.794;18.258;2023-02-10T06:10:59;-15847.13;;;-3.37;67.46
65157;BME280;52745;49.794;18.258;2023-02-10T06:13:26;-15850.16;;;-3.26;67.15
65157;BME280;52745;49.794;18.258;2023-02-10T06:15:53;-15849.06;;;-3.30;67.38
65157;BME280;52745;49.794;18.258;2023-02-10T06:18:20;-15849.59;;;-3.28;67.16
65157;BME280;52745;49.794;18.258;2023-02-10T06:20:47;-15848.22;;;-3.33;67.53
65157;BME280;52745;49.794;18.258;2023-02-10T06:23:14;-15847.13;;;-3.37;67.69
65157;BME280;52745;49.794;18.258;2023-02-10T06:25:41;-15846.84;;;-3.38;67.74
65157;BME280;52745;49.794;18.258;2023-02-10T06:28:08;-15845.34;;;-3.44;67.95
65157;BME280;52745;49.794;18.258;2023-02-10T06:30:34;-15843.84;;;-3.49;67.75
65157;BME280;52745;49.794;18.258;2023-02-10T06:33:02;-15846.19;;;-3.41;67.80
65157;BME280;52745;49.794;18.258;2023-02-10T06:35:28;-15846.59;;;-3.39;67.99
65157;BME280;52745;49.794;18.258;2023-02-10T06:37:56;-15846.72;;;-3.39;67.91
65157;BME280;52745;49.794;18.258;2023-02-10T06:40:22;-15847.13;;;-3.37;67.69
65157;BME280;52745;49.794;18.258;2023-02-10T06:42:50;-15848.66;;;-3.31;67.62
65157;BME280;52745;49.794;18.258;2023-02-10T06:45:16;-15848.38;;;-3.33;67.48
65157;BME280;52745;49.794;18.258;2023-02-10T06:47:43;-15848.91;;;-3.30;67.59
65157;BME280;52745;49.794;18.258;2023-02-10T06:50:10;-15848.22;;;-3.33;67.59
65157;BME280;52745;49.794;18.258;2023-02-10T06:52:39;-15851.25;;;-3.22;66.91
65157;BME280;52745;49.794;18.258;2023-02-10T06:55:07;-15849.47;;;-3.28;67.45
65157;BME280;52745;49.794;18.258;2023-02-10T06:57:35;-15851.94;;;-3.19;67.32
65157;BME280;52745;49.794;18.258;2023-02-10T07:00:07;-15853.44;;;-3.14;67.84
65157;BME280;52745;49.794;18.258;2023-02-10T07:02:35;-15852.47;;;-3.17;66.81
65157;BME280;52745;49.794;18.258;2023-02-10T07:05:04;-15855.09;;;-3.07;67.33
65157;BME280;52745;49.794;18.258;2023-02-10T07:07:32;-15858.13;;;-2.96;66.80
65157;BME280;52745;49.794;18.258;2023-02-10T07:09:58;-15857.16;;;-3.00;67.79
65157;BME280;52745;49.794;18.258;2023-02-10T07:12:25;-15860.31;;;-2.88;67.19
65157;BME280;52745;49.794;18.258;2023-02-10T07:14:52;-15861.81;;;-2.82;66.49
65157;BME280;52745;49.794;18.258;2023-02-10T07:17:20;-15861.41;;;-2.84;66.71
65157;BME280;52745;49.794;18.258;2023-02-10T07:19:47;-15861.00;;;-2.85;66.65
65157;BME280;52745;49.794;18.258;2023-02-10T07:22:14;-15860.31;;;-2.88;66.51
65157;BME280;52745;49.794;18.258;2023-02-10T07:24:40;-15861.94;;;-2.82;66.86
65157;BME280;52745;49.794;18.258;2023-02-10T07:27:07;-15864.41;;;-2.73;66.34
65157;BME280;52745;49.794;18.258;2023-02-10T07:29:34;-15864.69;;;-2.72;66.19
65157;BME280;52745;49.794;18.258;2023-02-10T07:32:02;-15864.84;;;-2.71;66.28
65157;BME280;52745;49.794;18.258;2023-02-10T07:34:29;-15864.56;;;-2.72;66.19
65157;BME280;52745;49.794;18.258;2023-02-10T07:36:57;-15864.56;;;-2.72;66.16
65157;BME280;52745;49.794;18.258;2023-02-10T07:39:23;-15866.75;;;-2.64;66.03
65157;BME280;52745;49.794;18.258;2023-02-10T07:41:50;-15868.69;;;-2.57;65.94
65157;BME280;52745;49.794;18.258;2023-02-10T07:44:19;-15871.28;;;-2.47;65.31
65157;BME280;52745;49.794;18.258;2023-02-10T07:46:52;-15875.13;;;-2.33;65.40
65157;BME280;52745;49.794;18.258;2023-02-10T07:49:19;-15874.56;;;-2.35;64.63
65157;BME280;52745;49.794;18.258;2023-02-10T07:51:46;-15873.06;;;-2.40;65.11
65157;BME280;52745;49.794;18.258;2023-02-10T07:54:12;-15876.22;;;-2.29;65.08
65157;BME280;52745;49.794;18.258;2023-02-10T07:56:39;-15874.31;;;-2.36;65.18
65157;BME280;52745;49.794;18.258;2023-02-10T07:59:06;-15878.41;;;-2.20;64.78
65157;BME280;52745;49.794;18.258;2023-02-10T08:01:33;-15879.25;;;-2.17;64.35
65157;BME280;52745;49.794;18.258;2023-02-10T08:04:02;-15881.56;;;-2.09;64.74
65157;BME280;52745;49.794;18.258;2023-02-10T08:06:30;-15882.81;;;-2.04;64.32
65157;BME280;52745;49.794;18.258;2023-02-10T08:08:56;-15884.03;;;-1.99;64.02
65157;BME280;52745;49.794;18.258;2023-02-10T08:11:23;-15883.34;;;-2.02;63.93
65157;BME280;52745;49.794;18.258;2023-02-10T08:13:50;-15889.94;;;-1.77;63.21
65157;BME280;52745;49.794;18.258;2023-02-10T08:16:17;-15892.41;;;-1.68;63.52
65157;BME280;52745;49.794;18.258;2023-02-10T08:18:43;-15892.97;;;-1.66;62.87
65157;BME280;52745;49.794;18.258;2023-02-10T08:21:10;-15895.69;;;-1.56;62.59
65157;BME280;52745;49.794;18.258;2023-02-10T08:23:37;-15894.88;;;-1.59;62.04
65157;BME280;52745;49.794;18.258;2023-02-10T08:26:13;-15896.78;;;-1.52;62.15
65157;BME280;52745;49.794;18.258;2023-02-10T08:28:39;-15899.81;;;-1.40;62.15
65157;BME280;52745;49.794;18.258;2023-02-10T08:31:08;-15902.56;;;-1.30;61.36
65157;BME280;52745;49.794;18.258;2023-02-10T08:33:37;-15905.84;;;-1.18;61.02
65157;BME280;52745;49.794;18.258;2023-02-10T08:36:09;-15908.59;;;-1.08;60.67
65157;BME280;52745;49.794;18.258;2023-02-10T08:38:37;-15910.50;;;-1.00;60.19
65157;BME280;52745;49.794;18.258;2023-02-10T08:41:05;-15912.03;;;-0.95;60.11
65157;BME280;52745;49.794;18.258;2023-02-10T08:43:31;-15941.75;;;0.16;56.99
65157;BME280;52745;49.794;18.258;2023-02-10T08:45:59;-15981.63;;;1.65;52.95
65157;BME280;52745;49.794;18.258;2023-02-10T08:48:26;-16002.84;;;2.45;49.94
65157;BME280;52745;49.794;18.258;2023-02-10T08:50:53;-16016.13;;;2.95;47.63
65157;BME280;52745;49.794;18.258;2023-02-10T08:53:21;-16037.34;;;3.74;46.29
65157;BME280;52745;49.794;18.258;2023-02-10T08:55:59;-16051.31;;;4.26;44.60
65157;BME280;52745;49.794;18.258;2023-02-10T08:58:27;-16066.88;;;4.85;43.06
65157;BME280;52745;49.794;18.258;2023-02-10T09:00:54;-16085.50;;;5.54;40.75
65157;BME280;52745;49.794;18.258;2023-02-10T09:03:21;-16085.22;;;5.53;40.84
65157;BME280;52745;49.794;18.258;2023-02-10T09:05:48;-16092.59;;;5.81;39.60
65157;BME280;52745;49.794;18.258;2023-02-10T09:08:16;-16102.16;;;6.17;38.89
65157;BME280;52745;49.794;18.258;2023-02-10T09:10:45;-16110.38;;;6.48;38.74
65157;BME280;52745;49.794;18.258;2023-02-10T09:13:12;-16101.34;;;6.14;38.52
65157;BME280;52745;49.794;18.258;2023-02-10T09:15:41;-16099.44;;;6.07;38.91
65157;BME280;52745;49.794;18.258;2023-02-10T09:18:09;-16072.38;;;5.05;40.77
65157;BME280;52745;49.794;18.258;2023-02-10T09:20:36;-16083.03;;;5.45;40.10
65157;BME280;52745;49.794;18.258;2023-02-10T09:23:03;-16112.00;;;6.54;38.94
65157;BME280;52745;49.794;18.258;2023-02-10T09:25:31;-16112.41;;;6.55;38.62
65157;BME280;52745;49.794;18.258;2023-02-10T09:27:58;-16096.84;;;5.97;39.17
65157;BME280;52745;49.794;18.258;2023-02-10T09:30:25;-16115.16;;;6.66;38.13
65157;BME280;52745;49.794;18.258;2023-02-10T09:32:53;-16109.00;;;6.42;38.57
65157;BME280;52745;49.794;18.258;2023-02-10T09:35:20;-16133.59;;;7.35;37.31
65157;BME280;52745;49.794;18.258;2023-02-10T09:37:47;-16147.78;;;7.88;36.33
65157;BME280;52745;49.794;18.258;2023-02-10T09:40:21;-16138.78;;;7.54;36.64
65157;BME280;52745;49.794;18.258;2023-02-10T09:43:03;-16133.72;;;7.35;36.58
65157;BME280;52745;49.794;18.258;2023-02-10T09:45:35;-16132.50;;;7.31;37.31
65157;BME280;52745;49.794;18.258;2023-02-10T09:48:40;-16137.13;;;7.48;37.44
65157;BME280;52745;49.794;18.258;2023-02-10T09:51:32;-16164.19;;;8.49;35.55
65157;BME280;52745;49.794;18.258;2023-02-10T09:54:08;-16156.53;;;8.21;35.51
65157;BME280;52745;49.794;18.258;2023-02-10T09:56:36;-16172.22;;;8.80;34.56
65157;BME280;52745;49.794;18.258;2023-02-10T09:59:05;-16189.44;;;9.44;34.26
65157;BME280;52745;49.794;18.258;2023-02-10T10:01:34;-16166.63;;;8.59;34.96
65157;BME280;52745;49.794;18.258;2023-02-10T10:04:20;-16173.47;;;8.84;34.92
65157;BME280;52745;49.794;18.258;2023-02-10T10:06:54;-16162.53;;;8.43;34.98
65157;BME280;52745;49.794;18.258;2023-02-10T10:09:44;-16174.00;;;8.86;34.78
65157;BME280;52745;49.794;18.258;2023-02-10T10:12:16;-16177.41;;;8.99;34.43
65157;BME280;52745;49.794;18.258;2023-02-10T10:14:43;-16184.50;;;9.26;34.44
65157;BME280;52745;49.794;18.258;2023-02-10T10:31:17;-16124.56;;;7.01;38.28
65157;BME280;52745;49.794;18.258;2023-02-10T10:33:53;-16145.88;;;7.81;37.32
65157;BME280;52745;49.794;18.258;2023-02-10T10:36:27;-16175.09;;;8.90;36.10
65157;BME280;52745;49.794;18.258;2023-02-10T10:39:36;-16180.28;;;9.10;35.03
65157;BME280;52745;49.794;18.258;2023-02-10T10:47:45;-16138.09;;;7.52;38.20
65157;BME280;52745;49.794;18.258;2023-02-10T10:50:19;-16148.34;;;7.90;37.37
65157;BME280;52745;49.794;18.258;2023-02-10T10:52:49;-16135.50;;;7.42;37.96
65157;BME280;52745;49.794;18.258;2023-02-10T10:57:52;-16123.06;;;6.95;39.57
65157;BME280;52745;49.794;18.258;2023-02-10T11:00:21;-16114.75;;;6.64;39.43
65157;BME280;52745;49.794;18.258;2023-02-10T11:03:06;-16099.03;;;6.05;40.49
65157;BME280;52745;49.794;18.258;2023-02-10T11:05:36;-16081.53;;;5.39;42.54
65157;BME280;52745;49.794;18.258;2023-02-10T11:08:06;-16057.19;;;4.48;44.71
65157;BME280;52745;49.794;18.258;2023-02-10T11:10:47;-16059.78;;;4.58;44.96
65157;BME280;52745;49.794;18.258;2023-02-10T11:13:19;-16078.66;;;5.29;44.14
65157;BME280;52745;49.794;18.258;2023-02-10T11:15:47;-16098.06;;;6.01;42.56
65157;BME280;52745;49.794;18.258;2023-02-10T11:18:20;-16096.84;;;5.97;42.35
65157;BME280;52745;49.794;18.258;2023-02-10T11:21:00;-16085.91;;;5.56;43.44
65157;BME280;52745;49.794;18.258;2023-02-10T11:23:28;-16089.19;;;5.68;43.37
65157;BME280;52745;49.794;18.258;2023-02-10T11:26:04;-16086.16;;;5.57;43.41
65157;BME280;52745;49.794;18.258;2023-02-10T11:28:36;-16063.47;;;4.72;44.99
65157;BME280;52745;49.794;18.258;2023-02-10T11:31:12;-16048.16;;;4.14;46.62
65157;BME280;52745;49.794;18.258;2023-02-10T11:33:58;-16038.84;;;3.80;47.70
65157;BME280;52745;49.794;18.258;2023-02-10T11:36:36;-16027.09;;;3.36;48.51
65157;BME280;52745;49.794;18.258;2023-02-10T11:39:06;-16026.13;;;3.32;49.26
65157;BME280;52745;49.794;18.258;2023-02-10T11:41:41;-16016.97;;;2.98;50.01
65157;BME280;52745;49.794;18.258;2023-02-10T11:44:38;-16010.81;;;2.75;50.87
65157;BME280;52745;49.794;18.258;2023-02-10T11:47:13;-16010.25;;;2.73;51.41
65157;BME280;52745;49.794;18.258;2023-02-10T11:49:44;-16004.50;;;2.51;52.21
65157;BME280;52745;49.794;18.258;2023-02-10T11:52:12;-16004.50;;;2.51;52.76
65157;BME280;52745;49.794;18.258;2023-02-10T11:54:40;-16003.94;;;2.49;53.16
65157;BME280;52745;49.794;18.258;2023-02-10T11:57:17;-16004.91;;;2.53;53.63
65157;BME280;52745;49.794;18.258;2023-02-10T12:00:16;-15999.03;;;2.31;53.72
65157;BME280;52745;49.794;18.258;2023-02-10T12:28:02;-15999.44;;;2.32;55.85
65157;BME280;52745;49.794;18.258;2023-02-10T12:31:01;-16009.97;;;2.72;54.63
65157;BME280;52745;49.794;18.258;2023-02-10T12:33:54;-16003.00;;;2.45;54.83
65157;BME280;52745;49.794;18.258;2023-02-10T12:36:35;-16010.94;;;2.75;54.70
65157;BME280;52745;49.794;18.258;2023-02-10T12:39:13;-16011.22;;;2.76;54.30
65157;BME280;52745;49.794;18.258;2023-02-10T12:50:33;-16005.03;;;2.53;55.26
65157;BME280;52745;49.794;18.258;2023-02-10T12:53:12;-16006.69;;;2.59;55.42
65157;BME280;52745;49.794;18.258;2023-02-10T12:56:00;-16012.44;;;2.81;54.90
65157;BME280;52745;49.794;18.258;2023-02-10T12:58:32;-16017.38;;;2.99;54.65
65157;BME280;52745;49.794;18.258;2023-02-10T13:01:22;-16042.28;;;3.92;52.76
65157;BME280;52745;49.794;18.258;2023-02-10T13:04:01;-16043.91;;;3.99;52.00
65157;BME280;52745;49.794;18.258;2023-02-10T13:06:42;-16052.41;;;4.30;51.62
65157;BME280;52745;49.794;18.258;2023-02-10T13:12:51;-16056.22;;;4.45;50.13
65157;BME280;52745;49.794;18.258;2023-02-10T13:15:15;-16057.59;;;4.50;50.48
65157;BME280;52745;49.794;18.258;2023-02-10T13:17:46;-16076.75;;;5.22;49.54
65157;BME280;52745;49.794;18.258;2023-02-10T13:20:40;-16080.28;;;5.35;47.97
65157;BME280;52745;49.794;18.258;2023-02-10T13:23:38;-16068.25;;;4.90;48.17
65157;BME280;52745;49.794;18.258;2023-02-10T13:34:45;-16023.13;;;3.21;53.68
65157;BME280;52745;49.794;18.258;2023-02-10T13:37:26;-16026.66;;;3.34;54.22
65157;BME280;52745;49.794;18.258;2023-02-10T13:39:59;-16026.25;;;3.33;53.55
65157;BME280;52745;49.794;18.258;2023-02-10T13:42:37;-16021.19;;;3.14;54.49
65157;BME280;52745;49.794;18.258;2023-02-10T13:47:42;-16030.09;;;3.47;53.49
65157;BME280;52745;49.794;18.258;2023-02-10T13:59:23;-16024.47;;;3.26;54.64
65157;BME280;52745;49.794;18.258;2023-02-10T14:04:40;-16012.44;;;2.81;55.50
65157;BME280;52745;49.794;18.258;2023-02-10T14:07:28;-16012.97;;;2.83;55.97
65157;BME280;52745;49.794;18.258;2023-02-10T14:12:59;-16011.34;;;2.77;55.67
65157;BME280;52745;49.794;18.258;2023-02-10T14:15:38;-16011.06;;;2.76;55.59
65157;BME280;52745;49.794;18.258;2023-02-10T14:18:32;-16006.69;;;2.59;55.98
65157;BME280;52745;49.794;18.258;2023-02-10T14:21:01;-16007.78;;;2.63;55.95
65157;BME280;52745;49.794;18.258;2023-02-10T14:23:31;-15999.84;;;2.34;57.39
65157;BME280;52745;49.794;18.258;2023-02-10T14:26:04;-15996.16;;;2.20;57.80
65157;BME280;52745;49.794;18.258;2023-02-10T14:28:35;-15989.84;;;1.96;58.22
65157;BME280;52745;49.794;18.258;2023-02-10T14:31:16;-15986.00;;;1.82;59.13
65157;BME280;52745;49.794;18.258;2023-02-10T14:33:52;-15989.56;;;1.95;58.92
65157;BME280;52745;49.794;18.258;2023-02-10T14:36:20;-15987.38;;;1.87;59.38
65157;BME280;52745;49.794;18.258;2023-02-10T14:38:53;-15977.94;;;1.52;60.05
65157;BME280;52745;49.794;18.258;2023-02-10T14:41:22;-15981.75;;;1.66;59.56
65157;BME280;52745;49.794;18.258;2023-02-10T14:43:50;-15984.09;;;1.75;59.38